sensor_id;sensor_type;location;lat;lon;timestamp;pressure;altitude;pressure_sealevel;temperature;humidity
75497;BME280;64074;47.540;19.072;2024-01-11T00:00:22;102056.84;;;-2.88;76.84
75497;BME280;64074;47.540;19.072;2024-01-11T00:03:49;102053.53;;;-2.90;77.37
75497;BME280;64074;47.540;19.072;2024-01-11T00:07:09;102063.81;;;-2.79;77.08
75497;BME280;64074;47.540;19.072;2024-01-11T00:10:13;102056.72;;;-2.70;77.13
75497;BME280;64074;47.540;19.072;2024-01-11T00:13:20;102053.06;;;-2.69;76.39
75497;BME280;64074;47.540;19.072;2024-01-11T00:16:30;102054.56;;;-2.66;75.74
75497;BME280;64074;47.540;19.072;2024-01-11T00:19:52;102055.34;;;-2.74;76.19
75497;BME280;64074;47.540;19.072;2024-01-11T00:23:14;102050.22;;;-2.84;76.12
75497;BME280;64074;47.540;19.072;2024-01-11T00:26:27;102046.56;;;-2.83;76.59
75497;BME280;64074;47.540;19.072;2024-01-11T00:29:54;102041.44;;;-2.76;76.71
75497;BME280;64074;47.540;19.072;2024-01-11T00:33:05;102041.94;;;-2.81;76.66
75497;BME280;64074;47.540;19.072;2024-01-11T00:36:36;102043.59;;;-2.80;75.92
75497;BME280;64074;47.540;19.072;2024-01-11T00:39:40;102046.06;;;-2.78;75.50
75497;BME280;64074;47.540;19.072;2024-01-11T00:42:45;102043.25;;;-2.76;75.53
75497;BME280;64074;47.540;19.072;2024-01-11T00:45:52;102026.84;;;-2.80;76.22
75497;BME280;64074;47.540;19.072;2024-01-11T00:49:04;102031.16;;;-2.87;76.12
75497;BME280;64074;47.540;19.072;2024-01-11T00:52:17;102037.28;;;-2.87;76.09
75497;BME280;64074;47.540;19.072;2024-01-11T00:55:27;102028.50;;;-2.87;75.71
75497;BME280;64074;47.540;19.072;2024-01-11T00:58:39;102029.97;;;-3.01;75.94
75497;BME280;64074;47.540;19.072;2024-01-11T01:01:49;102016.38;;;-2.98;76.06
75497;BME280;64074;47.540;19.072;2024-01-11T01:05:20;102007.78;;;-2.92;75.62
75497;BME280;64074;47.540;19.072;2024-01-11T01:08:38;102004.44;;;-3.02;74.81
75497;BME280;64074;47.540;19.072;2024-01-11T01:11:55;102011.41;;;-3.01;74.79
75497;BME280;64074;47.540;19.072;2024-01-11T01:15:25;102012.59;;;-2.95;75.00
75497;BME280;64074;47.540;19.072;2024-01-11T01:18:53;102014.56;;;-2.97;74.90
75497;BME280;64074;47.540;19.072;2024-01-11T01:22:07;102005.44;;;-3.11;74.77
75497;BME280;64074;47.540;19.072;2024-01-11T01:25:17;102005.75;;;-3.06;75.25
75497;BME280;64074;47.540;19.072;2024-01-11T01:28:54;101999.78;;;-3.08;74.91
75497;BME280;64074;47.540;19.072;2024-01-11T01:32:17;101984.88;;;-3.09;75.51
75497;BME280;64074;47.540;19.072;2024-01-11T01:35:20;101987.69;;;-3.11;74.77
75497;BME280;64074;47.540;19.072;2024-01-11T01:38:31;101991.66;;;-3.06;74.73
75497;BME280;64074;47.540;19.072;2024-01-11T01:41:41;101978.41;;;-3.06;74.98
75497;BME280;64074;47.540;19.072;2024-01-11T01:45:06;101984.53;;;-3.06;75.56
75497;BME280;64074;47.540;19.072;2024-01-11T01:48:29;101971.78;;;-3.11;75.26
75497;BME280;64074;47.540;19.072;2024-01-11T01:51:54;101963.31;;;-3.06;75.92
75497;BME280;64074;47.540;19.072;2024-01-11T01:55:09;101966.78;;;-3.05;76.05
75497;BME280;64074;47.540;19.072;2024-01-11T01:58:20;101962.16;;;-3.03;75.04
75497;BME280;64074;47.540;19.072;2024-01-11T02:01:58;101964.66;;;-3.10;74.61
75497;BME280;64074;47.540;19.072;2024-01-11T02:05:10;101949.41;;;-3.16;75.64
75497;BME280;64074;47.540;19.072;2024-01-11T02:08:36;101947.38;;;-3.22;75.19
75497;BME280;64074;47.540;19.072;2024-01-11T02:11:59;101945.22;;;-3.27;75.30
75497;BME280;64074;47.540;19.072;2024-01-11T02:15:28;101941.44;;;-3.41;75.62
75497;BME280;64074;47.540;19.072;2024-01-11T02:18:44;101941.75;;;-3.27;74.24
75497;BME280;64074;47.540;19.072;2024-01-11T02:22:06;101943.75;;;-3.29;75.15
75497;BME280;64074;47.540;19.072;2024-01-11T02:25:28;101942.41;;;-3.33;75.21
75497;BME280;64074;47.540;19.072;2024-01-11T02:28:49;101929.81;;;-3.39;76.23
75497;BME280;64074;47.540;19.072;2024-01-11T02:32:11;101931.13;;;-3.52;76.91
75497;BME280;64074;47.540;19.072;2024-01-11T02:35:39;101919.69;;;-3.60;77.17
75497;BME280;64074;47.540;19.072;2024-01-11T02:38:55;101917.53;;;-3.65;78.04
75497;BME280;64074;47.540;19.072;2024-01-11T02:42:20;101909.91;;;-3.68;77.67
75497;BME280;64074;47.540;19.072;2024-01-11T02:45:31;101909.41;;;-3.72;78.80
75497;BME280;64074;47.540;19.072;2024-01-11T02:48:34;101900.47;;;-3.62;78.54
75497;BME280;64074;47.540;19.072;2024-01-11T02:51:41;101896.00;;;-3.54;78.50
75497;BME280;64074;47.540;19.072;2024-01-11T02:54:48;101897.66;;;-3.53;78.38
75497;BME280;64074;47.540;19.072;2024-01-11T02:57:53;101887.22;;;-3.62;79.72
75497;BME280;64074;47.540;19.072;2024-01-11T03:00:57;101887.06;;;-3.61;78.73
75497;BME280;64074;47.540;19.072;2024-01-11T03:04:08;101886.06;;;-3.60;79.16
75497;BME280;64074;47.540;19.072;2024-01-11T03:07:24;101873.97;;;-3.70;80.59
75497;BME280;64074;47.540;19.072;2024-01-11T03:10:27;101873.63;;;-3.59;80.15
75497;BME280;64074;47.540;19.072;2024-01-11T03:13:37;101872.81;;;-3.52;80.14
75497;BME280;64074;47.540;19.072;2024-01-11T03:16:48;101866.69;;;-3.68;80.04
75497;BME280;64074;47.540;19.072;2024-01-11T03:19:58;101855.06;;;-3.76;79.79
75497;BME280;64074;47.540;19.072;2024-01-11T03:23:09;101863.53;;;-3.64;78.93
75497;BME280;64074;47.540;19.072;2024-01-11T03:26:17;101860.88;;;-3.56;78.98
75497;BME280;64074;47.540;19.072;2024-01-11T03:29:27;101844.47;;;-3.51;78.25
75497;BME280;64074;47.540;19.072;2024-01-11T03:32:55;101842.66;;;-3.59;77.94
75497;BME280;64074;47.540;19.072;2024-01-11T03:36:15;101848.31;;;-3.70;77.99
75497;BME280;64074;47.540;19.072;2024-01-11T03:39:39;101843.47;;;-3.75;77.98
75497;BME280;64074;47.540;19.072;2024-01-11T03:42:57;101834.38;;;-3.88;78.79
75497;BME280;64074;47.540;19.072;2024-01-11T03:46:13;101837.19;;;-3.82;78.44
75497;BME280;64074;47.540;19.072;2024-01-11T03:49:24;101839.16;;;-3.84;78.89
75497;BME280;64074;47.540;19.072;2024-01-11T03:53:01;101818.97;;;-3.93;78.77
75497;BME280;64074;47.540;19.072;2024-01-11T03:56:29;101821.44;;;-3.91;78.70
75497;BME280;64074;47.540;19.072;2024-01-11T03:59:50;101827.41;;;-3.89;78.47
75497;BME280;64074;47.540;19.072;2024-01-11T04:03:14;101823.78;;;-3.88;78.27
75497;BME280;64074;47.540;19.072;2024-01-11T04:06:25;101827.75;;;-3.92;77.87
75497;BME280;64074;47.540;19.072;2024-01-11T04:09:54;101820.78;;;-3.85;78.46
75497;BME280;64074;47.540;19.072;2024-01-11T04:13:19;101835.34;;;-3.81;77.96
75497;BME280;64074;47.540;19.072;2024-01-11T04:16:40;101833.22;;;-3.86;77.86
75497;BME280;64074;47.540;19.072;2024-01-11T04:20:07;101842.47;;;-3.82;78.00
75497;BME280;64074;47.540;19.072;2024-01-11T04:23:14;101836.03;;;-3.79;77.76
75497;BME280;64074;47.540;19.072;2024-01-11T04:26:22;101828.72;;;-3.77;77.67
75497;BME280;64074;47.540;19.072;2024-01-11T04:29:32;101831.22;;;-3.84;77.09
75497;BME280;64074;47.540;19.072;2024-01-11T04:32:43;101831.72;;;-3.88;76.87
75497;BME280;64074;47.540;19.072;2024-01-11T04:36:05;101833.53;;;-3.89;77.32
75497;BME280;64074;47.540;19.072;2024-01-11T04:39:26;101826.41;;;-3.88;77.50
75497;BME280;64074;47.540;19.072;2024-01-11T04:42:47;101830.56;;;-3.94;77.75
75497;BME280;64074;47.540;19.072;2024-01-11T04:46:22;101827.53;;;-3.99;77.34
75497;BME280;64074;47.540;19.072;2024-01-11T04:49:46;101825.56;;;-3.97;78.00
75497;BME280;64074;47.540;19.072;2024-01-11T04:52:50;101820.25;;;-3.97;77.83
75497;BME280;64074;47.540;19.072;2024-01-11T04:55:56;101821.59;;;-4.01;78.47
75497;BME280;64074;47.540;19.072;2024-01-11T04:59:09;101817.28;;;-4.02;77.82
75497;BME280;64074;47.540;19.072;2024-01-11T05:02:22;101820.78;;;-3.93;77.51
75497;BME280;64074;47.540;19.072;2024-01-11T05:05:32;101814.66;;;-3.94;78.21
75497;BME280;64074;47.540;19.072;2024-01-11T05:08:41;101816.66;;;-3.96;78.10
75497;BME280;64074;47.540;19.072;2024-01-11T05:11:45;101817.63;;;-3.97;78.41
75497;BME280;64074;47.540;19.072;2024-01-11T05:14:55;101820.78;;;-3.93;77.40
75497;BME280;64074;47.540;19.072;2024-01-11T05:18:06;101815.31;;;-3.92;77.53
75497;BME280;64074;47.540;19.072;2024-01-11T05:21:14;101808.53;;;-3.94;77.68
75497;BME280;64074;47.540;19.072;2024-01-11T05:24:24;101808.22;;;-3.91;77.60
75497;BME280;64074;47.540;19.072;2024-01-11T05:27:38;101811.84;;;-3.92;77.95
75497;BME280;64074;47.540;19.072;2024-01-11T05:30:55;101824.06;;;-4.08;78.27
75497;BME280;64074;47.540;19.072;2024-01-11T05:34:10;101831.69;;;-4.05;78.07
75497;BME280;64074;47.540;19.072;2024-01-11T05:37:22;101835.31;;;-4.06;78.17
75497;BME280;64074;47.540;19.072;2024-01-11T05:40:52;101828.53;;;-4.08;78.23
75497;BME280;64074;47.540;19.072;2024-01-11T05:44:20;101817.88;;;-4.24;78.97
75497;BME280;64074;47.540;19.072;2024-01-11T05:47:30;101828.22;;;-3.97;78.63
75497;BME280;64074;47.540;19.072;2024-01-11T05:51:08;101826.41;;;-3.88;78.02
75497;BME280;64074;47.540;19.072;2024-01-11T05:54:33;101829.72;;;-3.94;77.62
75497;BME280;64074;47.540;19.072;2024-01-11T05:58:00;101820.13;;;-3.95;78.48
75497;BME280;64074;47.540;19.072;2024-01-11T06:01:17;101818.47;;;-3.88;78.06
75497;BME280;64074;47.540;19.072;2024-01-11T06:04:36;101823.28;;;-3.92;78.01
75497;BME280;64074;47.540;19.072;2024-01-11T06:07:46;101822.44;;;-3.84;77.91
75497;BME280;64074;47.540;19.072;2024-01-11T06:11:21;101816.97;;;-3.83;77.73
75497;BME280;64074;47.540;19.072;2024-01-11T06:14:43;101801.56;;;-3.79;77.62
75497;BME280;64074;47.540;19.072;2024-01-11T06:18:11;101803.88;;;-3.76;78.40
75497;BME280;64074;47.540;19.072;2024-01-11T06:21:33;101801.25;;;-3.76;76.93
75497;BME280;64074;47.540;19.072;2024-01-11T06:24:46;101799.44;;;-3.92;77.03
75497;BME280;64074;47.540;19.072;2024-01-11T06:27:58;101802.41;;;-3.95;77.55
75497;BME280;64074;47.540;19.072;2024-01-11T06:31:34;101793.63;;;-3.87;77.56
75497;BME280;64074;47.540;19.072;2024-01-11T06:34:48;101808.22;;;-3.91;78.03
75497;BME280;64074;47.540;19.072;2024-01-11T06:38:16;101797.09;;;-3.87;78.40
75497;BME280;64074;47.540;19.072;2024-01-11T06:41:24;101793.78;;;-3.81;78.16
75497;BME280;64074;47.540;19.072;2024-01-11T06:44:35;101795.59;;;-3.73;78.16
75497;BME280;64074;47.540;19.072;2024-01-11T06:47:57;101798.28;;;-3.65;77.70
75497;BME280;64074;47.540;19.072;2024-01-11T06:51:07;101786.84;;;-3.65;77.35
75497;BME280;64074;47.540;19.072;2024-01-11T06:54:18;101786.50;;;-3.62;76.71
75497;BME280;64074;47.540;19.072;2024-01-11T06:57:40;101798.25;;;-3.41;77.71
75497;BME280;64074;47.540;19.072;2024-01-11T07:01:03;101795.41;;;-3.23;76.28
75497;BME280;64074;47.540;19.072;2024-01-11T07:04:21;101779.81;;;-3.18;76.03
75497;BME280;64074;47.540;19.072;2024-01-11T07:07:46;101787.22;;;-3.05;74.96
75497;BME280;64074;47.540;19.072;2024-01-11T07:11:02;101791.81;;;-2.83;75.15
75497;BME280;64074;47.540;19.072;2024-01-11T07:14:12;101788.28;;;-2.75;74.26
75497;BME280;64074;47.540;19.072;2024-01-11T07:17:22;101787.22;;;-2.58;73.98
75497;BME280;64074;47.540;19.072;2024-01-11T07:20:33;101781.91;;;-2.58;74.55
75497;BME280;64074;47.540;19.072;2024-01-11T07:23:45;101771.28;;;-2.58;74.70
75497;BME280;64074;47.540;19.072;2024-01-11T07:27:11;101775.88;;;-2.43;74.47
75497;BME280;64074;47.540;19.072;2024-01-11T07:30:24;101792.06;;;-2.30;74.74
75497;BME280;64074;47.540;19.072;2024-01-11T07:33:37;101779.91;;;-2.25;74.32
75497;BME280;64074;47.540;19.072;2024-01-11T07:36:46;101779.09;;;-2.02;73.16
75497;BME280;64074;47.540;19.072;2024-01-11T07:39:55;101781.53;;;-1.93;73.02
75497;BME280;64074;47.540;19.072;2024-01-11T07:43:07;101770.63;;;-1.98;73.70
75497;BME280;64074;47.540;19.072;2024-01-11T07:46:25;101776.41;;;-1.94;73.71
75497;BME280;64074;47.540;19.072;2024-01-11T07:49:54;101777.53;;;-1.74;73.43
75497;BME280;64074;47.540;19.072;2024-01-11T07:53:30;101777.38;;;-1.72;72.47
75497;BME280;64074;47.540;19.072;2024-01-11T07:57:11;101769.22;;;-1.71;71.73
75497;BME280;64074;47.540;19.072;2024-01-11T08:00:56;101768.97;;;-1.61;70.05
75497;BME280;64074;47.540;19.072;2024-01-11T08:04:29;101757.94;;;-1.06;68.26
75497;BME280;64074;47.540;19.072;2024-01-11T08:07:53;101754.63;;;-1.08;67.90
75497;BME280;64074;47.540;19.072;2024-01-11T08:11:28;101758.03;;;-0.99;67.41
75497;BME280;64074;47.540;19.072;2024-01-11T08:14:42;101745.91;;;-1.02;66.27
75497;BME280;64074;47.540;19.072;2024-01-11T08:17:57;101745.34;;;-0.82;66.48
75497;BME280;64074;47.540;19.072;2024-01-11T08:21:38;101735.63;;;-0.90;65.36
75497;BME280;64074;47.540;19.072;2024-01-11T08:24:55;101736.25;;;-0.88;64.02
75497;BME280;64074;47.540;19.072;2024-01-11T08:28:07;101725.25;;;-1.00;63.90
75497;BME280;64074;47.540;19.072;2024-01-11T08:31:23;101729.41;;;-0.97;62.50
75497;BME280;64074;47.540;19.072;2024-01-11T08:34:30;101724.88;;;-0.82;61.66
75497;BME280;64074;47.540;19.072;2024-01-11T08:37:45;101727.25;;;-0.72;61.16
75497;BME280;64074;47.540;19.072;2024-01-11T08:40:52;101714.28;;;-0.75;61.40
75497;BME280;64074;47.540;19.072;2024-01-11T08:44:13;101708.75;;;-0.59;59.77
75497;BME280;64074;47.540;19.072;2024-01-11T08:47:43;101711.56;;;-0.46;58.32
75497;BME280;64074;47.540;19.072;2024-01-11T08:51:23;101718.00;;;-0.19;58.22
75497;BME280;64074;47.540;19.072;2024-01-11T08:54:37;101729.28;;;-0.17;57.75
75497;BME280;64074;47.540;19.072;2024-01-11T08:57:59;101731.16;;;-0.32;55.79
75497;BME280;64074;47.540;19.072;2024-01-11T09:02:18;101725.44;;;-0.50;56.25
75497;BME280;64074;47.540;19.072;2024-01-11T09:05:51;101722.97;;;-0.31;56.43
75497;BME280;64074;47.540;19.072;2024-01-11T09:09:19;101710.25;;;-0.35;56.72
75497;BME280;64074;47.540;19.072;2024-01-11T09:12:50;101721.97;;;-0.29;56.32
75497;BME280;64074;47.540;19.072;2024-01-11T09:16:02;101723.06;;;-0.24;55.70
75497;BME280;64074;47.540;19.072;2024-01-11T09:19:30;101712.13;;;-0.29;55.86
75497;BME280;64074;47.540;19.072;2024-01-11T09:23:21;101709.91;;;-0.04;55.83
75497;BME280;64074;47.540;19.072;2024-01-11T09:26:29;101697.16;;;-0.09;55.10
75497;BME280;64074;47.540;19.072;2024-01-11T09:29:44;101677.47;;;-0.08;55.70
75497;BME280;64074;47.540;19.072;2024-01-11T09:33:14;101675.13;;;0.04;55.25
75497;BME280;64074;47.540;19.072;2024-01-11T09:36:36;101671.25;;;0.07;53.94
75497;BME280;64074;47.540;19.072;2024-01-11T09:40:43;101643.41;;;0.44;54.34
75497;BME280;64074;47.540;19.072;2024-01-11T09:44:02;101629.63;;;0.40;50.78
75497;BME280;64074;47.540;19.072;2024-01-11T09:47:18;101612.44;;;0.49;51.69
75497;BME280;64074;47.540;19.072;2024-01-11T09:50:30;101618.66;;;0.56;50.37
75497;BME280;64074;47.540;19.072;2024-01-11T09:53:43;101606.53;;;0.54;48.98
75497;BME280;64074;47.540;19.072;2024-01-11T09:57:06;101599.97;;;0.56;50.12
75497;BME280;64074;47.540;19.072;2024-01-11T10:00:24;101613.84;;;0.86;48.92
75497;BME280;64074;47.540;19.072;2024-01-11T10:03:33;101598.03;;;0.91;49.65
75497;BME280;64074;47.540;19.072;2024-01-11T10:06:45;101581.41;;;0.83;49.58
75497;BME280;64074;47.540;19.072;2024-01-11T10:10:08;101585.72;;;0.97;50.51
75497;BME280;64074;47.540;19.072;2024-01-11T10:13:38;101570.38;;;1.19;49.12
75497;BME280;64074;47.540;19.072;2024-01-11T10:17:11;101569.75;;;1.23;49.76
75497;BME280;64074;47.540;19.072;2024-01-11T10:20:22;101574.69;;;1.20;50.88
75497;BME280;64074;47.540;19.072;2024-01-11T10:23:34;101567.28;;;1.15;50.37
75497;BME280;64074;47.540;19.072;2024-01-11T10:26:49;101563.84;;;1.41;51.18
75497;BME280;64074;47.540;19.072;2024-01-11T10:30:05;101561.13;;;1.15;52.07
75497;BME280;64074;47.540;19.072;2024-01-11T10:33:22;101558.09;;;1.38;51.92
75497;BME280;64074;47.540;19.072;2024-01-11T10:36:47;101546.38;;;1.52;51.65
75497;BME280;64074;47.540;19.072;2024-01-11T10:40:10;101549.25;;;1.64;51.70
75497;BME280;64074;47.540;19.072;2024-01-11T10:44:46;101551.09;;;1.70;53.71
75497;BME280;64074;47.540;19.072;2024-01-11T10:48:12;101536.50;;;1.66;53.34
75497;BME280;64074;47.540;19.072;2024-01-11T10:51:34;101533.22;;;1.37;52.55
75497;BME280;64074;47.540;19.072;2024-01-11T10:55:13;101515.13;;;1.33;53.27
75497;BME280;64074;47.540;19.072;2024-01-11T10:58:27;101502.78;;;1.58;53.14
75497;BME280;64074;47.540;19.072;2024-01-11T11:01:38;101502.75;;;1.71;52.59
75497;BME280;64074;47.540;19.072;2024-01-11T11:04:58;101498.22;;;1.85;53.43
75497;BME280;64074;47.540;19.072;2024-01-11T11:08:39;101492.25;;;1.90;53.14
75497;BME280;64074;47.540;19.072;2024-01-11T11:12:22;101499.88;;;1.79;53.86
75497;BME280;64074;47.540;19.072;2024-01-11T11:15:36;101482.94;;;2.05;53.70
75497;BME280;64074;47.540;19.072;2024-01-11T11:18:57;101489.75;;;1.95;53.61
75497;BME280;64074;47.540;19.072;2024-01-11T11:22:16;101497.00;;;1.81;54.94
75497;BME280;64074;47.540;19.072;2024-01-11T11:25:33;101501.91;;;1.91;55.14
75497;BME280;64074;47.540;19.072;2024-01-11T11:28:50;101491.84;;;1.73;54.56
75497;BME280;64074;47.540;19.072;2024-01-11T11:32:10;101480.09;;;2.00;53.72
75497;BME280;64074;47.540;19.072;2024-01-11T11:35:26;101471.72;;;1.77;53.50
75497;BME280;64074;47.540;19.072;2024-01-11T11:38:45;101455.03;;;1.88;54.15
75497;BME280;64074;47.540;19.072;2024-01-11T11:42:22;101460.34;;;2.01;54.16
75497;BME280;64074;47.540;19.072;2024-01-11T11:45:40;101471.50;;;1.78;54.12
75497;BME280;64074;47.540;19.072;2024-01-11T11:49:06;101472.94;;;1.68;54.80
75497;BME280;64074;47.540;19.072;2024-01-11T11:52:21;101463.72;;;1.64;55.24
75497;BME280;64074;47.540;19.072;2024-01-11T11:55:39;101441.97;;;1.40;55.79
75497;BME280;64074;47.540;19.072;2024-01-11T11:58:57;101428.53;;;1.80;55.47
75497;BME280;64074;47.540;19.072;2024-01-11T12:15:59;101413.88;;;1.89;54.90
75497;BME280;64074;47.540;19.072;2024-01-11T12:19:08;101410.44;;;2.27;54.34
75497;BME280;64074;47.540;19.072;2024-01-11T12:22:17;101405.75;;;2.15;53.82
75497;BME280;64074;47.540;19.072;2024-01-11T12:25:29;101395.72;;;2.04;53.98
75497;BME280;64074;47.540;19.072;2024-01-11T12:28:35;101415.47;;;2.48;52.34
75497;BME280;64074;47.540;19.072;2024-01-11T12:31:46;101410.00;;;2.61;52.41
75497;BME280;64074;47.540;19.072;2024-01-11T12:34:57;101419.69;;;2.62;51.19
75497;BME280;64074;47.540;19.072;2024-01-11T12:38:09;101414.56;;;2.86;51.70
75497;BME280;64074;47.540;19.072;2024-01-11T12:41:22;101407.34;;;2.61;51.62
75497;BME280;64074;47.540;19.072;2024-01-11T12:44:38;101407.88;;;2.38;52.83
75497;BME280;64074;47.540;19.072;2024-01-11T12:48:17;101412.81;;;2.03;53.71
75497;BME280;64074;47.540;19.072;2024-01-11T12:51:30;101402.06;;;2.10;53.47
75497;BME280;64074;47.540;19.072;2024-01-11T12:54:46;101409.09;;;2.04;52.99
75497;BME280;64074;47.540;19.072;2024-01-11T12:58:07;101390.81;;;2.01;52.30
75497;BME280;64074;47.540;19.072;2024-01-11T13:01:49;101391.13;;;2.18;52.33
75497;BME280;64074;47.540;19.072;2024-01-11T13:06:20;101381.19;;;1.87;52.11
75497;BME280;64074;47.540;19.072;2024-01-11T13:10:16;101362.75;;;2.10;52.67
75497;BME280;64074;47.540;19.072;2024-01-11T13:13:48;101356.53;;;2.23;50.76
75497;BME280;64074;47.540;19.072;2024-01-11T13:16:55;101346.44;;;2.19;49.73
75497;BME280;64074;47.540;19.072;2024-01-11T13:20:09;101347.94;;;2.14;47.30
75497;BME280;64074;47.540;19.072;2024-01-11T13:23:36;101347.00;;;2.34;47.93
75497;BME280;64074;47.540;19.072;2024-01-11T13:26:47;101332.50;;;2.41;47.09
75497;BME280;64074;47.540;19.072;2024-01-11T13:29:59;101335.84;;;2.05;47.67
75497;BME280;64074;47.540;19.072;2024-01-11T13:33:20;101339.50;;;2.42;47.94
75497;BME280;64074;47.540;19.072;2024-01-11T13:36:32;101331.53;;;2.36;48.09
75497;BME280;64074;47.540;19.072;2024-01-11T13:39:49;101323.34;;;2.31;48.32
75497;BME280;64074;47.540;19.072;2024-01-11T13:43:57;101312.97;;;2.09;47.40
75497;BME280;64074;47.540;19.072;2024-01-11T13:48:24;101289.47;;;2.18;46.86
75497;BME280;64074;47.540;19.072;2024-01-11T13:52:30;101286.56;;;2.20;46.76
75497;BME280;64074;47.540;19.072;2024-01-11T13:55:42;101273.19;;;2.20;46.32
75497;BME280;64074;47.540;19.072;2024-01-11T13:59:19;101263.81;;;2.10;45.97
75497;BME280;64074;47.540;19.072;2024-01-11T14:02:50;101266.81;;;2.21;46.26
75497;BME280;64074;47.540;19.072;2024-01-11T14:06:01;101248.66;;;2.29;45.94
75497;BME280;64074;47.540;19.072;2024-01-11T14:09:33;101239.22;;;2.20;45.64
75497;BME280;64074;47.540;19.072;2024-01-11T14:12:57;101245.97;;;2.54;46.14
75497;BME280;64074;47.540;19.072;2024-01-11T14:16:15;101238.59;;;2.50;46.28
75497;BME280;64074;47.540;19.072;2024-01-11T14:19:28;101220.13;;;2.41;47.18
75497;BME280;64074;47.540;19.072;2024-01-11T14:22:41;101226.88;;;2.44;46.54
75497;BME280;64074;47.540;19.072;2024-01-11T14:25:55;101226.44;;;2.29;44.81
75497;BME280;64074;47.540;19.072;2024-01-11T14:29:00;101220.25;;;2.53;44.00
75497;BME280;64074;47.540;19.072;2024-01-11T14:32:12;101222.03;;;2.59;43.78
75497;BME280;64074;47.540;19.072;2024-01-11T14:35:42;101220.47;;;2.27;47.37
75497;BME280;64074;47.540;19.072;2024-01-11T14:39:03;101232.78;;;2.03;48.53
75497;BME280;64074;47.540;19.072;2024-01-11T14:42:21;101223.56;;;1.99;50.08
75497;BME280;64074;47.540;19.072;2024-01-11T14:45:31;101220.00;;;1.80;51.28
75497;BME280;64074;47.540;19.072;2024-01-11T14:48:40;101231.88;;;1.84;52.84
75497;BME280;64074;47.540;19.072;2024-01-11T14:52:03;101219.63;;;1.32;53.80
75497;BME280;64074;47.540;19.072;2024-01-11T14:55:26;101202.44;;;1.59;54.33
75497;BME280;64074;47.540;19.072;2024-01-11T14:58:36;101208.94;;;1.70;55.18
75497;BME280;64074;47.540;19.072;2024-01-11T15:01:46;101198.56;;;1.55;54.29
75497;BME280;64074;47.540;19.072;2024-01-11T15:05:23;101206.63;;;1.42;55.88
75497;BME280;64074;47.540;19.072;2024-01-11T15:08:33;101217.00;;;1.25;55.71
75497;BME280;64074;47.540;19.072;2024-01-11T15:12:07;101193.88;;;1.06;56.60
75497;BME280;64074;47.540;19.072;2024-01-11T15:15:10;101205.63;;;1.36;56.60
75497;BME280;64074;47.540;19.072;2024-01-11T15:18:14;101212.97;;;1.47;56.31
75497;BME280;64074;47.540;19.072;2024-01-11T15:21:24;101221.78;;;1.54;55.46
75497;BME280;64074;47.540;19.072;2024-01-11T15:24:33;101219.94;;;1.48;55.77
75497;BME280;64074;47.540;19.072;2024-01-11T15:27:41;101214.44;;;1.43;55.39
75497;BME280;64074;47.540;19.072;2024-01-11T15:30:48;101188.34;;;1.39;54.55
75497;BME280;64074;47.540;19.072;2024-01-11T15:33:55;101186.84;;;1.56;53.42
75497;BME280;64074;47.540;19.072;2024-01-11T15:37:03;101185.41;;;1.53;50.03
75497;BME280;64074;47.540;19.072;2024-01-11T15:40:15;101186.94;;;1.68;48.57
75497;BME280;64074;47.540;19.072;2024-01-11T15:43:26;101171.56;;;1.63;46.25
75497;BME280;64074;47.540;19.072;2024-01-11T15:46:34;101197.41;;;1.76;46.54
75497;BME280;64074;47.540;19.072;2024-01-11T15:49:44;101190.06;;;1.65;46.28
75497;BME280;64074;47.540;19.072;2024-01-11T15:53:08;101182.53;;;1.55;46.35
75497;BME280;64074;47.540;19.072;2024-01-11T15:56:36;101186.41;;;1.59;47.87
75497;BME280;64074;47.540;19.072;2024-01-11T15:59:46;101173.75;;;1.41;49.53
75497;BME280;64074;47.540;19.072;2024-01-11T16:03:08;101185.38;;;1.15;50.88
75497;BME280;64074;47.540;19.072;2024-01-11T16:06:29;101197.13;;;1.08;51.82
75497;BME280;64074;47.540;19.072;2024-01-11T16:09:52;101190.38;;;0.99;53.06
75497;BME280;64074;47.540;19.072;2024-01-11T16:13:03;101192.44;;;1.03;54.19
75497;BME280;64074;47.540;19.072;2024-01-11T16:16:34;101177.44;;;0.96;55.10
75497;BME280;64074;47.540;19.072;2024-01-11T16:19:49;101164.59;;;0.79;56.44
75497;BME280;64074;47.540;19.072;2024-01-11T16:22:58;101169.72;;;0.81;56.79
75497;BME280;64074;47.540;19.072;2024-01-11T16:26:32;101161.75;;;0.61;58.99
75497;BME280;64074;47.540;19.072;2024-01-11T16:29:56;101172.44;;;0.48;60.65
75497;BME280;64074;47.540;19.072;2024-01-11T16:33:14;101158.72;;;0.51;60.81
75497;BME280;64074;47.540;19.072;2024-01-11T16:36:36;101154.59;;;0.48;62.30
75497;BME280;64074;47.540;19.072;2024-01-11T16:39:53;101167.13;;;0.41;62.54
75497;BME280;64074;47.540;19.072;2024-01-11T16:42:59;101162.44;;;0.50;63.08
75497;BME280;64074;47.540;19.072;2024-01-11T16:46:04;101136.75;;;0.49;63.88
75497;BME280;64074;47.540;19.072;2024-01-11T16:49:16;101149.50;;;0.40;63.77
75497;BME280;64074;47.540;19.072;2024-01-11T16:52:24;101138.66;;;0.22;64.57
75497;BME280;64074;47.540;19.072;2024-01-11T16:55:31;101135.75;;;0.37;64.08
75497;BME280;64074;47.540;19.072;2024-01-11T16:58:45;101123.06;;;0.25;64.64
75497;BME280;64074;47.540;19.072;2024-01-11T17:01:55;101123.66;;;0.34;63.92
75497;BME280;64074;47.540;19.072;2024-01-11T17:05:08;101120.19;;;0.20;64.55
75497;BME280;64074;47.540;19.072;2024-01-11T17:08:22;101117.94;;;0.24;63.97
75497;BME280;64074;47.540;19.072;2024-01-11T17:11:56;101123.66;;;0.34;63.54
75497;BME280;64074;47.540;19.072;2024-01-11T17:15:13;101118.56;;;0.26;63.24
75497;BME280;64074;47.540;19.072;2024-01-11T17:18:42;101106.03;;;0.20;63.04
75497;BME280;64074;47.540;19.072;2024-01-11T17:21:56;101119.34;;;0.33;63.70
75497;BME280;64074;47.540;19.072;2024-01-11T17:25:03;101107.69;;;0.27;63.22
75497;BME280;64074;47.540;19.072;2024-01-11T17:28:08;101111.16;;;0.28;62.48